sensor_id;sensor_type;location;lat;lon;timestamp;pressure;altitude;pressure_sealevel;temperature;humidity
10470;BME280;5282;47.052;15.458;2023-12-04T00:01:45;98293.44;;;-5.36;100.00
10470;BME280;5282;47.052;15.458;2023-12-04T00:04:12;98295.09;;;-5.33;100.00
10470;BME280;5282;47.052;15.458;2023-12-04T00:06:42;98287.38;;;-5.38;100.00
10470;BME280;5282;47.052;15.458;2023-12-04T00:09:09;98286.56;;;-5.40;100.00
10470;BME280;5282;47.052;15.458;2023-12-04T00:11:39;98289.28;;;-5.43;100.00
10470;BME280;5282;47.052;15.458;2023-12-04T00:14:06;98291.91;;;-5.43;100.00
10470;BME280;5282;47.052;15.458;2023-12-04T00:16:35;98287.69;;;-5.47;100.00
10470;BME280;5282;47.052;15.458;2023-12-04T00:19:02;98293.94;;;-5.51;100.00
10470;BME280;5282;47.052;15.458;2023-12-04T00:21:29;98282.69;;;-5.55;100.00
10470;BME280;5282;47.052;15.458;2023-12-04T00:23:58;98288.78;;;-5.54;100.00
10470;BME280;5282;47.052;15.458;2023-12-04T00:26:25;98291.47;;;-5.58;100.00
10470;BME280;5282;47.052;15.458;2023-12-04T00:28:52;98293.47;;;-5.64;100.00
10470;BME280;5282;47.052;15.458;2023-12-04T00:31:19;98294.53;;;-5.70;100.00
10470;BME280;5282;47.052;15.458;2023-12-04T00:33:47;98298.06;;;-5.73;100.00
10470;BME280;5282;47.052;15.458;2023-12-04T00:36:15;98291.47;;;-5.84;100.00
10470;BME280;5282;47.052;15.458;2023-12-04T00:38:44;98293.34;;;-5.90;100.00
10470;BME280;5282;47.052;15.458;2023-12-04T00:41:12;98291.81;;;-5.97;100.00
10470;BME280;5282;47.052;15.458;2023-12-04T00:43:39;98291.13;;;-6.02;100.00
10470;BME280;5282;47.052;15.458;2023-12-04T00:46:07;98292.03;;;-6.03;100.00
10470;BME280;5282;47.052;15.458;2023-12-04T00:48:34;98285.84;;;-6.00;100.00
10470;BME280;5282;47.052;15.458;2023-12-04T00:51:01;98292.13;;;-6.06;100.00
10470;BME280;5282;47.052;15.458;2023-12-04T00:53:29;98283.47;;;-6.08;100.00
10470;BME280;5282;47.052;15.458;2023-12-04T00:55:56;98286.97;;;-6.09;100.00
10470;BME280;5282;47.052;15.458;2023-12-04T00:58:25;98292.31;;;-6.12;100.00
10470;BME280;5282;47.052;15.458;2023-12-04T01:00:53;98281.81;;;-6.12;100.00
10470;BME280;5282;47.052;15.458;2023-12-04T01:03:22;98278.38;;;-6.14;100.00
10470;BME280;5282;47.052;15.458;2023-12-04T01:05:52;98284.44;;;-6.12;100.00
10470;BME280;5282;47.052;15.458;2023-12-04T01:08:19;98280.06;;;-6.12;100.00
10470;BME280;5282;47.052;15.458;2023-12-04T01:10:47;98273.94;;;-6.12;100.00
10470;BME280;5282;47.052;15.458;2023-12-04T01:13:14;98273.88;;;-6.09;100.00
10470;BME280;5282;47.052;15.458;2023-12-04T01:15:43;98269.44;;;-6.07;100.00
10470;BME280;5282;47.052;15.458;2023-12-04T01:18:12;98261.72;;;-6.12;100.00
10470;BME280;5282;47.052;15.458;2023-12-04T01:20:40;98261.06;;;-6.20;100.00
10470;BME280;5282;47.052;15.458;2023-12-04T01:23:07;98264.66;;;-6.23;100.00
10470;BME280;5282;47.052;15.458;2023-12-04T01:25:35;98255.94;;;-6.23;100.00
10470;BME280;5282;47.052;15.458;2023-12-04T01:28:03;98263.66;;;-6.18;100.00
10470;BME280;5282;47.052;15.458;2023-12-04T01:30:30;98260.09;;;-6.16;100.00
10470;BME280;5282;47.052;15.458;2023-12-04T01:32:59;98263.56;;;-6.15;100.00
10470;BME280;5282;47.052;15.458;2023-12-04T01:35:25;98269.38;;;-6.06;100.00
10470;BME280;5282;47.052;15.458;2023-12-04T01:37:52;98272.22;;;-6.13;100.00
10470;BME280;5282;47.052;15.458;2023-12-04T01:40:19;98273.03;;;-6.10;100.00
10470;BME280;5282;47.052;15.458;2023-12-04T01:42:48;98273.28;;;-6.19;100.00
10470;BME280;5282;47.052;15.458;2023-12-04T01:45:16;98273.13;;;-6.14;100.00
10470;BME280;5282;47.052;15.458;2023-12-04T01:47:43;98263.69;;;-6.20;100.00
10470;BME280;5282;47.052;15.458;2023-12-04T01:50:14;98260.97;;;-6.15;100.00
10470;BME280;5282;47.052;15.458;2023-12-04T01:52:42;98256.63;;;-6.16;100.00
10470;BME280;5282;47.052;15.458;2023-12-04T01:55:10;98261.13;;;-6.22;100.00
10470;BME280;5282;47.052;15.458;2023-12-04T01:57:38;98261.41;;;-6.31;100.00
10470;BME280;5282;47.052;15.458;2023-12-04T02:00:07;98259.41;;;-6.23;100.00
10470;BME280;5282;47.052;15.458;2023-12-04T02:02:37;98250.91;;;-6.31;100.00
10470;BME280;5282;47.052;15.458;2023-12-04T02:05:05;98260.03;;;-6.44;100.00
10470;BME280;5282;47.052;15.458;2023-12-04T02:07:35;98254.03;;;-6.49;100.00
10470;BME280;5282;47.052;15.458;2023-12-04T02:10:02;98254.56;;;-6.68;100.00
10470;BME280;5282;47.052;15.458;2023-12-04T02:12:30;98251.25;;;-6.73;100.00
10470;BME280;5282;47.052;15.458;2023-12-04T02:14:57;98247.81;;;-6.77;100.00
10470;BME280;5282;47.052;15.458;2023-12-04T02:17:25;98250.44;;;-6.77;100.00
10470;BME280;5282;47.052;15.458;2023-12-04T02:19:53;98253.94;;;-6.76;100.00
10470;BME280;5282;47.052;15.458;2023-12-04T02:22:20;98244.66;;;-6.88;100.00
10470;BME280;5282;47.052;15.458;2023-12-04T02:24:49;98240.97;;;-6.81;100.00
10470;BME280;5282;47.052;15.458;2023-12-04T02:27:18;98240.91;;;-6.79;100.00
10470;BME280;5282;47.052;15.458;2023-12-04T02:29:52;98241.91;;;-6.84;100.00
10470;BME280;5282;47.052;15.458;2023-12-04T02:32:19;98240.09;;;-6.82;100.00
10470;BME280;5282;47.052;15.458;2023-12-04T02:34:48;98234.16;;;-6.88;100.00
10470;BME280;5282;47.052;15.458;2023-12-04T02:37:17;98242.91;;;-6.88;100.00
10470;BME280;5282;47.052;15.458;2023-12-04T02:39:44;98240.22;;;-6.85;100.00
10470;BME280;5282;47.052;15.458;2023-12-04T02:42:13;98239.41;;;-6.88;100.00
10470;BME280;5282;47.052;15.458;2023-12-04T02:44:42;98238.63;;;-6.90;100.00
10470;BME280;5282;47.052;15.458;2023-12-04T02:47:11;98241.22;;;-6.90;100.00
10470;BME280;5282;47.052;15.458;2023-12-04T02:49:38;98242.16;;;-6.93;100.00
10470;BME280;5282;47.052;15.458;2023-12-04T02:52:05;98243.03;;;-6.92;100.00
10470;BME280;5282;47.052;15.458;2023-12-04T02:54:32;98244.06;;;-7.00;100.00
10470;BME280;5282;47.052;15.458;2023-12-04T02:56:59;98244.13;;;-7.01;100.00
10470;BME280;5282;47.052;15.458;2023-12-04T02:59:27;98239.91;;;-7.07;100.00
10470;BME280;5282;47.052;15.458;2023-12-04T03:01:54;98237.44;;;-7.13;100.00
10470;BME280;5282;47.052;15.458;2023-12-04T03:04:22;98243.34;;;-7.05;100.00
10470;BME280;5282;47.052;15.458;2023-12-04T03:06:49;98241.66;;;-7.07;100.00
10470;BME280;5282;47.052;15.458;2023-12-04T03:09:16;98231.19;;;-7.07;100.00
10470;BME280;5282;47.052;15.458;2023-12-04T03:11:43;98227.72;;;-7.08;100.00
10470;BME280;5282;47.052;15.458;2023-12-04T03:14:10;98230.41;;;-7.09;100.00
10470;BME280;5282;47.052;15.458;2023-12-04T03:16:39;98227.78;;;-7.11;100.00
10470;BME280;5282;47.052;15.458;2023-12-04T03:19:08;98231.31;;;-7.12;100.00
10470;BME280;5282;47.052;15.458;2023-12-04T03:21:39;98226.06;;;-7.10;100.00
10470;BME280;5282;47.052;15.458;2023-12-04T03:24:07;98229.44;;;-7.07;100.00
10470;BME280;5282;47.052;15.458;2023-12-04T03:26:36;98228.66;;;-7.10;100.00
10470;BME280;5282;47.052;15.458;2023-12-04T03:29:03;98226.94;;;-7.11;100.00
10470;BME280;5282;47.052;15.458;2023-12-04T03:31:30;98226.19;;;-7.15;100.00
10470;BME280;5282;47.052;15.458;2023-12-04T03:33:58;98226.25;;;-7.18;100.00
10470;BME280;5282;47.052;15.458;2023-12-04T03:36:25;98222.75;;;-7.17;100.00
10470;BME280;5282;47.052;15.458;2023-12-04T03:38:52;98218.59;;;-7.26;100.00
10470;BME280;5282;47.052;15.458;2023-12-04T03:41:21;98223.75;;;-7.23;100.00
10470;BME280;5282;47.052;15.458;2023-12-04T03:43:48;98221.84;;;-7.18;100.00
10470;BME280;5282;47.052;15.458;2023-12-04T03:46:17;98215.78;;;-7.18;100.00
10470;BME280;5282;47.052;15.458;2023-12-04T03:48:43;98212.50;;;-7.26;100.00
10470;BME280;5282;47.052;15.458;2023-12-04T03:51:12;98214.25;;;-7.25;100.00
10470;BME280;5282;47.052;15.458;2023-12-04T03:53:39;98208.19;;;-7.29;100.00
10470;BME280;5282;47.052;15.458;2023-12-04T03:56:07;98202.97;;;-7.29;100.00
10470;BME280;5282;47.052;15.458;2023-12-04T03:58:34;98204.81;;;-7.33;100.00
10470;BME280;5282;47.052;15.458;2023-12-04T04:01:03;98201.16;;;-7.27;100.00
10470;BME280;5282;47.052;15.458;2023-12-04T04:03:41;98199.38;;;-7.25;100.00
10470;BME280;5282;47.052;15.458;2023-12-04T04:06:09;98191.59;;;-7.28;100.00
10470;BME280;5282;47.052;15.458;2023-12-04T04:08:38;98196.94;;;-7.31;100.00
10470;BME280;5282;47.052;15.458;2023-12-04T04:11:07;98191.78;;;-7.34;100.00
10470;BME280;5282;47.052;15.458;2023-12-04T04:13:34;98189.94;;;-7.31;100.00
10470;BME280;5282;47.052;15.458;2023-12-04T04:16:01;98191.66;;;-7.30;100.00
10470;BME280;5282;47.052;15.458;2023-12-04T04:18:28;98200.19;;;-7.23;100.00
10470;BME280;5282;47.052;15.458;2023-12-04T04:20:58;98190.56;;;-7.22;100.00
10470;BME280;5282;47.052;15.458;2023-12-04T04:23:26;98194.16;;;-7.25;100.00
10470;BME280;5282;47.052;15.458;2023-12-04T04:25:55;98198.44;;;-7.22;100.00
10470;BME280;5282;47.052;15.458;2023-12-04T04:28:22;98194.22;;;-7.28;100.00
10470;BME280;5282;47.052;15.458;2023-12-04T04:30:49;98195.09;;;-7.28;100.00
10470;BME280;5282;47.052;15.458;2023-12-04T04:33:16;98196.00;;;-7.30;100.00
10470;BME280;5282;47.052;15.458;2023-12-04T04:35:44;98196.94;;;-7.31;100.00
10470;BME280;5282;47.052;15.458;2023-12-04T04:38:11;98200.47;;;-7.34;100.00
10470;BME280;5282;47.052;15.458;2023-12-04T04:40:38;98203.34;;;-7.43;100.00
10470;BME280;5282;47.052;15.458;2023-12-04T04:43:10;98203.41;;;-7.46;100.00
10470;BME280;5282;47.052;15.458;2023-12-04T04:45:37;98203.44;;;-7.48;100.00
10470;BME280;5282;47.052;15.458;2023-12-04T04:48:04;98206.91;;;-7.46;100.00
10470;BME280;5282;47.052;15.458;2023-12-04T04:50:31;98200.66;;;-7.41;100.00
10470;BME280;5282;47.052;15.458;2023-12-04T04:52:58;98195.53;;;-7.45;100.00
10470;BME280;5282;47.052;15.458;2023-12-04T04:55:25;98194.59;;;-7.42;100.00
10470;BME280;5282;47.052;15.458;2023-12-04T04:57:53;98198.22;;;-7.48;100.00
10470;BME280;5282;47.052;15.458;2023-12-04T05:00:23;98185.38;;;-7.57;100.00
10470;BME280;5282;47.052;15.458;2023-12-04T05:02:50;98199.28;;;-7.55;100.00
10470;BME280;5282;47.052;15.458;2023-12-04T05:05:18;98213.09;;;-7.50;100.00
10470;BME280;5282;47.052;15.458;2023-12-04T05:07:45;98207.78;;;-7.47;100.00
10470;BME280;5282;47.052;15.458;2023-12-04T05:10:12;98205.31;;;-7.53;100.00
10470;BME280;5282;47.052;15.458;2023-12-04T05:12:39;98201.03;;;-7.55;100.00
10470;BME280;5282;47.052;15.458;2023-12-04T05:15:07;98208.09;;;-7.59;100.00
10470;BME280;5282;47.052;15.458;2023-12-04T05:17:36;98205.47;;;-7.59;100.00
10470;BME280;5282;47.052;15.458;2023-12-04T05:20:04;98207.09;;;-7.53;100.00
10470;BME280;5282;47.052;15.458;2023-12-04T05:22:32;98199.03;;;-7.46;100.00
10470;BME280;5282;47.052;15.458;2023-12-04T05:24:59;98204.47;;;-7.53;100.00
10470;BME280;5282;47.052;15.458;2023-12-04T05:27:26;98208.84;;;-7.54;100.00
10470;BME280;5282;47.052;15.458;2023-12-04T05:29:55;98212.25;;;-7.52;100.00
10470;BME280;5282;47.052;15.458;2023-12-04T05:32:23;98206.13;;;-7.49;100.00
10470;BME280;5282;47.052;15.458;2023-12-04T05:34:52;98200.91;;;-7.51;100.00
10470;BME280;5282;47.052;15.458;2023-12-04T05:37:18;98200.97;;;-7.52;100.00
10470;BME280;5282;47.052;15.458;2023-12-04T05:39:46;98207.09;;;-7.53;100.00
10470;BME280;5282;47.052;15.458;2023-12-04T05:42:13;98201.81;;;-7.52;100.00
10470;BME280;5282;47.052;15.458;2023-12-04T05:44:41;98200.97;;;-7.52;100.00
10470;BME280;5282;47.052;15.458;2023-12-04T05:47:09;98201.91;;;-7.55;100.00
10470;BME280;5282;47.052;15.458;2023-12-04T05:49:36;98202.69;;;-7.53;100.00
10470;BME280;5282;47.052;15.458;2023-12-04T05:52:05;98200.19;;;-7.56;100.00
10470;BME280;5282;47.052;15.458;2023-12-04T05:54:33;98201.16;;;-7.60;100.00
10470;BME280;5282;47.052;15.458;2023-12-04T05:57:00;98197.69;;;-7.62;100.00
10470;BME280;5282;47.052;15.458;2023-12-04T05:59:27;98191.69;;;-7.66;100.00
10470;BME280;5282;47.052;15.458;2023-12-04T06:01:54;98197.94;;;-7.71;100.00
10470;BME280;5282;47.052;15.458;2023-12-04T06:04:21;98189.13;;;-7.67;100.00
10470;BME280;5282;47.052;15.458;2023-12-04T06:06:48;98191.66;;;-7.64;100.00
10470;BME280;5282;47.052;15.458;2023-12-04T06:09:16;98195.09;;;-7.62;100.00
10470;BME280;5282;47.052;15.458;2023-12-04T06:11:44;98197.81;;;-7.65;100.00
10470;BME280;5282;47.052;15.458;2023-12-04T06:14:10;98195.22;;;-7.67;100.00
10470;BME280;5282;47.052;15.458;2023-12-04T06:16:37;98193.53;;;-7.69;100.00
10470;BME280;5282;47.052;15.458;2023-12-04T06:19:04;98200.44;;;-7.67;100.00
10470;BME280;5282;47.052;15.458;2023-12-04T06:21:31;98201.31;;;-7.68;100.00
10470;BME280;5282;47.052;15.458;2023-12-04T06:23:58;98198.84;;;-7.72;100.00
10470;BME280;5282;47.052;15.458;2023-12-04T06:26:27;98203.13;;;-7.70;100.00
10470;BME280;5282;47.052;15.458;2023-12-04T06:28:56;98209.34;;;-7.76;100.00
10470;BME280;5282;47.052;15.458;2023-12-04T06:31:24;98197.56;;;-7.56;100.00
10470;BME280;5282;47.052;15.458;2023-12-04T06:33:51;98199.59;;;-7.67;100.00
10470;BME280;5282;47.052;15.458;2023-12-04T06:36:19;98199.66;;;-7.70;100.00
10470;BME280;5282;47.052;15.458;2023-12-04T06:38:47;98199.59;;;-7.69;100.00
10470;BME280;5282;47.052;15.458;2023-12-04T06:41:17;98201.44;;;-7.71;100.00
10470;BME280;5282;47.052;15.458;2023-12-04T06:43:49;98197.88;;;-7.70;100.00
10470;BME280;5282;47.052;15.458;2023-12-04T06:46:17;98193.53;;;-7.69;100.00
10470;BME280;5282;47.052;15.458;2023-12-04T06:48:47;98193.53;;;-7.69;100.00
10470;BME280;5282;47.052;15.458;2023-12-04T06:51:14;98189.72;;;-7.56;100.00
10470;BME280;5282;47.052;15.458;2023-12-04T06:53:41;98182.78;;;-7.57;100.00
10470;BME280;5282;47.052;15.458;2023-12-04T06:56:09;98188.88;;;-7.58;100.00
10470;BME280;5282;47.052;15.458;2023-12-04T06:58:36;98180.88;;;-7.52;100.00
10470;BME280;5282;47.052;15.458;2023-12-04T07:01:04;98186.81;;;-7.45;100.00
10470;BME280;5282;47.052;15.458;2023-12-04T07:03:31;98182.41;;;-7.43;100.00
10470;BME280;5282;47.052;15.458;2023-12-04T07:05:58;98185.72;;;-7.36;100.00
10470;BME280;5282;47.052;15.458;2023-12-04T07:08:25;98183.84;;;-7.31;100.00
10470;BME280;5282;47.052;15.458;2023-12-04T07:10:52;98180.81;;;-7.16;100.00
10470;BME280;5282;47.052;15.458;2023-12-04T07:13:19;98191.31;;;-7.17;100.00
10470;BME280;5282;47.052;15.458;2023-12-04T07:15:47;98194.91;;;-7.20;100.00
10470;BME280;5282;47.052;15.458;2023-12-04T07:18:15;98196.44;;;-7.13;100.00
10470;BME280;5282;47.052;15.458;2023-12-04T07:20:42;98197.16;;;-7.07;100.00
10470;BME280;5282;47.052;15.458;2023-12-04T07:23:08;98193.63;;;-7.05;100.00
10470;BME280;5282;47.052;15.458;2023-12-04T07:25:35;98182.25;;;-7.04;100.00
10470;BME280;5282;47.052;15.458;2023-12-04T07:28:02;98187.28;;;-6.98;100.00
10470;BME280;5282;47.052;15.458;2023-12-04T07:30:29;98180.53;;;-6.73;100.00
10470;BME280;5282;47.052;15.458;2023-12-04T07:32:58;98184.75;;;-6.69;100.00
10470;BME280;5282;47.052;15.458;2023-12-04T07:35:26;98191.34;;;-6.56;100.00
10470;BME280;5282;47.052;15.458;2023-12-04T07:37:53;98187.22;;;-6.63;100.00
10470;BME280;5282;47.052;15.458;2023-12-04T07:40:20;98183.09;;;-6.72;100.00
10470;BME280;5282;47.052;15.458;2023-12-04T07:42:48;98178.44;;;-6.62;100.00
10470;BME280;5282;47.052;15.458;2023-12-04T07:45:16;98176.72;;;-6.63;100.00
10470;BME280;5282;47.052;15.458;2023-12-04T07:47:43;98182.31;;;-6.45;100.00
10470;BME280;5282;47.052;15.458;2023-12-04T07:50:10;98183.97;;;-6.43;100.00
10470;BME280;5282;47.052;15.458;2023-12-04T07:52:38;98179.53;;;-6.39;100.00
10470;BME280;5282;47.052;15.458;2023-12-04T07:55:06;98182.69;;;-6.28;100.00
10470;BME280;5282;47.052;15.458;2023-12-04T07:57:33;98173.66;;;-6.19;100.00
10470;BME280;5282;47.052;15.458;2023-12-04T08:00:00;98179.78;;;-6.20;100.00
10470;BME280;5282;47.052;15.458;2023-12-04T08:02:27;98186.03;;;-5.96;100.00
10470;BME280;5282;47.052;15.458;2023-12-04T08:04:54;98181.88;;;-6.03;100.00
10470;BME280;5282;47.052;15.458;2023-12-04T08:07:21;98185.97;;;-5.94;100.00
10470;BME280;5282;47.052;15.458;2023-12-04T08:09:50;98179.47;;;-5.82;100.00
10470;BME280;5282;47.052;15.458;2023-12-04T08:12:17;98174.59;;;-5.66;100.00
10470;BME280;5282;47.052;15.458;2023-12-04T08:14:43;98175.19;;;-5.58;100.00
10470;BME280;5282;47.052;15.458;2023-12-04T08:17:12;98177.66;;;-5.53;100.00
10470;BME280;5282;47.052;15.458;2023-12-04T08:19:39;98179.03;;;-5.43;100.00
10470;BME280;5282;47.052;15.458;2023-12-04T08:22:05;98165.94;;;-5.18;100.00
10470;BME280;5282;47.052;15.458;2023-12-04T08:24:32;98166.75;;;-4.92;100.00
10470;BME280;5282;47.052;15.458;2023-12-04T08:27:01;98156.34;;;-4.70;100.00
10470;BME280;5282;47.052;15.458;2023-12-04T08:29:28;98146.91;;;-4.75;100.00
10470;BME280;5282;47.052;15.458;2023-12-04T08:31:55;98131.19;;;-4.77;100.00
10470;BME280;5282;47.052;15.458;2023-12-04T08:34:21;98135.25;;;-4.68;100.00
10470;BME280;5282;47.052;15.458;2023-12-04T08:36:48;98136.13;;;-4.45;100.00
10470;BME280;5282;47.052;15.458;2023-12-04T08:39:15;98133.44;;;-4.20;100.00
10470;BME280;5282;47.052;15.458;2023-12-04T08:41:45;98135.72;;;-3.90;100.00
10470;BME280;5282;47.052;15.458;2023-12-04T08:44:13;98141.09;;;-3.71;100.00
10470;BME280;5282;47.052;15.458;2023-12-04T08:46:41;98131.91;;;-3.83;100.00
10470;BME280;5282;47.052;15.458;2023-12-04T08:49:08;98134.22;;;-3.53;100.00
10470;BME280;5282;47.052;15.458;2023-12-04T08:51:35;98132.03;;;-3.22;100.00
10470;BME280;5282;47.052;15.458;2023-12-04T08:54:02;98130.25;;;-2.82;100.00
10470;BME280;5282;47.052;15.458;2023-12-04T08:56:29;98132.28;;;-2.49;100.00
10470;BME280;5282;47.052;15.458;2023-12-04T08:58:57;98129.75;;;-2.14;100.00
10470;BME280;5282;47.052;15.458;2023-12-04T09:01:28;98134.34;;;-2.37;100.00
10470;BME280;5282;47.052;15.458;2023-12-04T09:03:55;98136.28;;;-2.40;100.00
10470;BME280;5282;47.052;15.458;2023-12-04T09:06:22;98127.66;;;-2.25;100.00
10470;BME280;5282;47.052;15.458;2023-12-04T09:08:50;98130.34;;;-2.45;100.00
10470;BME280;5282;47.052;15.458;2023-12-04T09:11:17;98125.28;;;-2.50;100.00
10470;BME280;5282;47.052;15.458;2023-12-04T09:13:44;98120.88;;;-1.94;100.00
10470;BME280;5282;47.052;15.458;2023-12-04T09:16:11;98108.09;;;-1.31;100.00
10470;BME280;5282;47.052;15.458;2023-12-04T09:18:40;98106.34;;;-0.48;100.00
10470;BME280;5282;47.052;15.458;2023-12-04T09:21:07;98095.34;;;0.07;100.00
10470;BME280;5282;47.052;15.458;2023-12-04T09:23:35;98106.41;;;0.45;100.00
10470;BME280;5282;47.052;15.458;2023-12-04T09:26:03;98088.09;;;0.86;100.00
10470;BME280;5282;47.052;15.458;2023-12-04T09:28:31;98084.34;;;1.19;100.00
10470;BME280;5282;47.052;15.458;2023-12-04T09:30:57;98072.13;;;0.42;100.00
10470;BME280;5282;47.052;15.458;2023-12-04T09:33:24;98066.50;;;0.63;100.00
10470;BME280;5282;47.052;15.458;2023-12-04T09:35:54;98062.53;;;0.56;100.00
10470;BME280;5282;47.052;15.458;2023-12-04T09:38:20;98061.09;;;0.50;100.00
10470;BME280;5282;47.052;15.458;2023-12-04T09:40:48;98061.66;;;0.55;100.00
10470;BME280;5282;47.052;15.458;2023-12-04T09:43:16;98058.63;;;0.47;100.00
10470;BME280;5282;47.052;15.458;2023-12-04T09:45:44;98049.66;;;0.93;100.00
10470;BME280;5282;47.052;15.458;2023-12-04T09:48:11;98045.84;;;1.41;93.38
10470;BME280;5282;47.052;15.458;2023-12-04T09:50:38;98039.94;;;1.50;93.09
10470;BME280;5282;47.052;15.458;2023-12-04T09:53:10;98035.69;;;1.47;90.13
10470;BME280;5282;47.052;15.458;2023-12-04T09:55:37;98027.88;;;1.59;95.34
10470;BME280;5282;47.052;15.458;2023-12-04T09:58:04;98023.81;;;2.08;89.32
10470;BME280;5282;47.052;15.458;2023-12-04T10:00:32;98024.88;;;2.05;79.83
10470;BME280;5282;47.052;15.458;2023-12-04T10:03:00;98027.69;;;1.62;78.40
10470;BME280;5282;47.052;15.458;2023-12-04T10:05:29;98021.78;;;1.71;83.27
10470;BME280;5282;47.052;15.458;2023-12-04T10:07:56;98007.69;;;2.11;81.55
10470;BME280;5282;47.052;15.458;2023-12-04T10:10:24;98002.38;;;2.11;81.58
10470;BME280;5282;47.052;15.458;2023-12-04T10:12:51;97992.34;;;2.55;75.32
10470;BME280;5282;47.052;15.458;2023-12-04T10:15:19;97983.41;;;2.56;71.68
10470;BME280;5282;47.052;15.458;2023-12-04T10:17:46;97978.25;;;2.27;72.97
10470;BME280;5282;47.052;15.458;2023-12-04T10:20:14;97978.19;;;2.28;74.01
10470;BME280;5282;47.052;15.458;2023-12-04T10:22:53;97972.63;;;2.31;71.75
10470;BME280;5282;47.052;15.458;2023-12-04T10:25:21;97965.09;;;2.38;71.50
10470;BME280;5282;47.052;15.458;2023-12-04T10:27:54;97968.66;;;1.98;72.64
10470;BME280;5282;47.052;15.458;2023-12-04T10:30:25;97964.84;;;2.15;74.43
10470;BME280;5282;47.052;15.458;2023-12-04T10:32:56;97962.66;;;2.61;70.70
10470;BME280;5282;47.052;15.458;2023-12-04T10:35:28;97953.22;;;1.91;67.20
10470;BME280;5282;47.052;15.458;2023-12-04T10:37:59;97945.38;;;2.02;75.25
10470;BME280;5282;47.052;15.458;2023-12-04T10:40:28;97944.78;;;2.24;70.70
10470;BME280;5282;47.052;15.458;2023-12-04T10:43:12;97937.16;;;2.45;68.04
10470;BME280;5282;47.052;15.458;2023-12-04T10:45:40;97929.91;;;2.22;67.11
10470;BME280;5282;47.052;15.458;2023-12-04T10:48:07;97929.78;;;1.57;67.10
10470;BME280;5282;47.052;15.458;2023-12-04T10:50:35;97925.03;;;1.35;74.59
10470;BME280;5282;47.052;15.458;2023-12-04T10:53:07;97928.06;;;1.43;78.70
10470;BME280;5282;47.052;15.458;2023-12-04T10:55:35;97929.59;;;1.60;79.35
10470;BME280;5282;47.052;15.458;2023-12-04T10:58:09;97917.72;;;1.66;78.61
10470;BME280;5282;47.052;15.458;2023-12-04T11:00:40;97913.41;;;1.50;75.82
10470;BME280;5282;47.052;15.458;2023-12-04T11:03:09;97914.06;;;0.99;79.28
10470;BME280;5282;47.052;15.458;2023-12-04T11:05:40;97908.00;;;1.52;76.24
10470;BME280;5282;47.052;15.458;2023-12-04T11:08:09;97901.13;;;1.62;74.91
10470;BME280;5282;47.052;15.458;2023-12-04T11:10:42;97901.03;;;1.64;77.19
10470;BME280;5282;47.052;15.458;2023-12-04T11:13:17;97893.19;;;1.35;76.69
10470;BME280;5282;47.052;15.458;2023-12-04T11:15:50;97901.69;;;0.85;83.85
10470;BME280;5282;47.052;15.458;2023-12-04T11:18:21;97902.94;;;0.36;98.71
10470;BME280;5282;47.052;15.458;2023-12-04T11:20:58;97900.88;;;0.56;100.00
10470;BME280;5282;47.052;15.458;2023-12-04T11:23:25;97899.81;;;0.58;97.62
10470;BME280;5282;47.052;15.458;2023-12-04T11:25:53;97894.50;;;0.29;97.87
10470;BME280;5282;47.052;15.458;2023-12-04T11:28:21;97891.56;;;0.05;100.00
10470;BME280;5282;47.052;15.458;2023-12-04T11:30:50;97886.75;;;0.12;100.00
10470;BME280;5282;47.052;15.458;2023-12-04T11:33:18;97888.81;;;0.07;100.00
10470;BME280;5282;47.052;15.458;2023-12-04T11:35:45;97878.22;;;-0.22;100.00
10470;BME280;5282;47.052;15.458;2023-12-04T11:38:13;97873.69;;;-0.51;100.00
10470;BME280;5282;47.052;15.458;2023-12-04T11:40:41;97871.00;;;-0.65;100.00
10470;BME280;5282;47.052;15.458;2023-12-04T11:43:21;97861.63;;;-0.71;100.00
10470;BME280;5282;47.052;15.458;2023-12-04T11:45:50;97858.31;;;-0.44;100.00
10470;BME280;5282;47.052;15.458;2023-12-04T11:48:22;97859.03;;;-0.56;100.00
10470;BME280;5282;47.052;15.458;2023-12-04T11:50:50;97856.16;;;-0.68;100.00
10470;BME280;5282;47.052;15.458;2023-12-04T11:53:38;97854.47;;;-0.69;100.00
10470;BME280;5282;47.052;15.458;2023-12-04T11:56:10;97854.28;;;-0.66;100.00
10470;BME280;5282;47.052;15.458;2023-12-04T11:58:42;97850.97;;;-1.16;100.00
10470;BME280;5282;47.052;15.458;2023-12-04T12:01:11;97854.84;;;-0.91;100.00
10470;BME280;5282;47.052;15.458;2023-12-04T12:03:38;97840.13;;;-0.65;100.00
10470;BME280;5282;47.052;15.458;2023-12-04T12:06:06;97847.13;;;-0.80;100.00
10470;BME280;5282;47.052;15.458;2023-12-04T12:08:33;97846.63;;;-0.70;100.00
10470;BME280;5282;47.052;15.458;2023-12-04T12:11:00;97838.53;;;-0.83;100.00
10470;BME280;5282;47.052;15.458;2023-12-04T12:13:28;97827.78;;;-0.80;100.00
10470;BME280;5282;47.052;15.458;2023-12-04T12:15:55;97831.06;;;-0.60;100.00
10470;BME280;5282;47.052;15.458;2023-12-04T12:18:25;97829.56;;;-0.65;100.00
10470;BME280;5282;47.052;15.458;2023-12-04T12:20:54;97834.88;;;-0.97;100.00
10470;BME280;5282;47.052;15.458;2023-12-04T12:23:22;97819.69;;;-0.77;100.00
10470;BME280;5282;47.052;15.458;2023-12-04T12:25:49;97817.44;;;-0.69;100.00
10470;BME280;5282;47.052;15.458;2023-12-04T12:28:16;97806.69;;;-0.66;100.00
10470;BME280;5282;47.052;15.458;2023-12-04T12:30:43;97806.63;;;-0.80;100.00
10470;BME280;5282;47.052;15.458;2023-12-04T12:33:12;97799.38;;;-0.76;100.00
10470;BME280;5282;47.052;15.458;2023-12-04T12:35:41;97788.78;;;-0.76;100.00
10470;BME280;5282;47.052;15.458;2023-12-04T12:38:08;97783.38;;;-0.89;100.00
10470;BME280;5282;47.052;15.458;2023-12-04T12:40:35;97783.38;;;-0.89;100.00
10470;BME280;5282;47.052;15.458;2023-12-04T12:43:05;97777.16;;;-0.88;100.00
10470;BME280;5282;47.052;15.458;2023-12-04T12:45:38;97779.78;;;-1.19;100.00
10470;BME280;5282;47.052;15.458;2023-12-04T12:48:05;97777.22;;;-1.04;100.00
10470;BME280;5282;47.052;15.458;2023-12-04T12:50:32;97768.34;;;-1.19;100.00
10470;BME280;5282;47.052;15.458;2023-12-04T12:53:02;97768.88;;;-1.29;100.00
10470;BME280;5282;47.052;15.458;2023-12-04T12:55:29;97775.31;;;-1.33;100.00
10470;BME280;5282;47.052;15.458;2023-12-04T12:57:56;97773.91;;;-1.24;100.00